Time;durP1;ratioP1;P1;durP2;ratioP2;P2;SDS_P1;SDS_P2;PMS_P1;PMS_P2;Temp;Humidity;BMP_temperature;BMP_pressure;BME280_temperature;BME280_humidity;BME280_pressure;Samples;Min_cycle;Max_cycle;Signal;HPM_P1;HPM_P2
2022/09/30 00:00:16;;;;;;;2.05;0.00;;;;;;;12.71;100.00;99492.22;5029102;28;20041;-86
2022/09/30 00:02:42;;;;;;;0.90;0.10;;;;;;;12.70;100.00;99486.19;5014853;28;20024;-84
2022/09/30 00:05:07;;;;;;;1.20;0.00;;;;;;;12.70;100.00;99470.50;5047890;28;20025;-84
2022/09/30 00:07:33;;;;;;;0.98;0.00;;;;;;;12.67;100.00;99478.69;5045424;28;20482;-84
2022/09/30 00:09:58;;;;;;;0.65;0.00;;;;;;;12.66;100.00;99478.88;5032354;28;20544;-84
2022/09/30 00:12:24;;;;;;;3.40;0.10;;;;;;;12.63;100.00;99480.88;5045571;28;20036;-84
2022/09/30 00:14:49;;;;;;;0.82;0.00;;;;;;;12.62;100.00;99487.09;5010890;28;20380;-83
2022/09/30 00:17:14;;;;;;;2.63;0.10;;;;;;;12.62;100.00;99483.66;5024273;28;20035;-84
2022/09/30 00:19:40;;;;;;;1.95;0.00;;;;;;;12.63;100.00;99464.38;5032828;28;20270;-83
2022/09/30 00:22:05;;;;;;;1.85;0.17;;;;;;;12.59;100.00;99453.47;5030579;28;20442;-84
2022/09/30 00:24:31;;;;;;;2.47;0.10;;;;;;;12.55;100.00;99456.63;5028021;28;20030;-84
2022/09/30 00:26:56;;;;;;;1.55;0.10;;;;;;;12.53;100.00;99453.38;5029501;28;20090;-84
2022/09/30 00:29:21;;;;;;;2.35;0.00;;;;;;;12.52;100.00;99460.41;5021473;28;20037;-85
2022/09/30 00:31:47;;;;;;;1.10;0.10;;;;;;;12.52;100.00;99465.63;5010043;28;20041;-82
2022/09/30 00:34:12;;;;;;;0.88;0.10;;;;;;;12.53;100.00;99479.50;5039913;28;20032;-84
2022/09/30 00:36:50;;;;;;;1.65;0.08;;;;;;;12.58;100.00;99482.41;5047520;28;20385;-83
2022/09/30 00:39:27;;;;;;;1.05;0.10;;;;;;;12.51;100.00;99486.72;5044052;28;20029;-83
2022/09/30 00:41:57;;;;;;;0.82;0.00;;;;;;;12.50;100.00;99482.47;5033585;28;20039;-83
2022/09/30 00:44:50;;;;;;;0.40;0.03;;;;;;;12.51;100.00;99468.44;5046494;28;20029;-84
2022/09/30 00:47:33;;;;;;;0.63;0.10;;;;;;;12.49;100.00;99454.75;5032217;28;20029;-83
2022/09/30 00:50:08;;;;;;;1.45;0.00;;;;;;;12.45;100.00;99450.88;5012676;28;20120;-83
2022/09/30 00:52:34;;;;;;;1.02;0.00;;;;;;;12.39;100.00;99441.13;5029654;28;20485;-83
2022/09/30 00:55:03;;;;;;;3.08;0.00;;;;;;;12.40;100.00;99437.53;5047404;28;20021;-85
2022/09/30 00:57:29;;;;;;;3.30;0.10;;;;;;;12.37;100.00;99443.13;5035930;28;20497;-84
2022/09/30 01:00:25;;;;;;;0.30;0.10;;;;;;;12.38;100.00;99449.97;5044106;28;20155;-84
2022/09/30 01:02:52;;;;;;;0.38;0.00;;;;;;;12.35;100.00;99458.16;5043024;28;20841;-83
2022/09/30 01:05:19;;;;;;;0.85;0.00;;;;;;;12.34;100.00;99453.94;5031569;28;20025;-84
2022/09/30 01:07:45;;;;;;;0.82;0.10;;;;;;;12.32;100.00;99459.31;5012953;28;20034;-85
2022/09/30 01:10:11;;;;;;;0.47;0.00;;;;;;;12.28;100.00;99466.75;5038577;28;20021;-83
2022/09/30 01:12:38;;;;;;;0.20;0.00;;;;;;;12.27;100.00;99469.53;5045886;28;20047;-83
2022/09/30 01:15:04;;;;;;;1.00;0.10;;;;;;;12.28;100.00;99477.19;5031374;28;20025;-82
2022/09/30 01:18:16;;;;;;;0.10;0.00;;;;;;;12.18;100.00;99474.03;5031651;28;20526;-85
2022/09/30 01:20:44;;;;;;;0.95;0.03;;;;;;;12.16;100.00;99475.19;5045445;28;20044;-84
2022/09/30 01:23:25;;;;;;;0.28;0.00;;;;;;;12.09;100.00;99484.72;5021088;28;20447;-83
2022/09/30 01:26:00;;;;;;;0.68;0.00;;;;;;;12.10;100.00;99487.16;5029370;28;20048;-83
2022/09/30 01:28:31;;;;;;;0.80;0.30;;;;;;;12.07;100.00;99490.13;5029862;28;20039;-85
2022/09/30 01:31:05;;;;;;;0.52;0.00;;;;;;;12.11;100.00;99486.16;5031874;28;20045;-84
2022/09/30 01:34:06;;;;;;;0.20;0.00;;;;;;;12.06;100.00;99487.69;5042433;28;20040;-84
2022/09/30 01:36:49;;;;;;;1.13;0.00;;;;;;;12.06;100.00;99495.50;5050843;28;20032;-86
2022/09/30 01:39:26;;;;;;;0.75;0.00;;;;;;;12.05;100.00;99484.25;5047264;28;20075;-83
2022/09/30 01:42:35;;;;;;;0.30;0.00;;;;;;;11.99;100.00;99487.56;5042204;28;20025;-84
2022/09/30 01:45:07;;;;;;;0.68;0.00;;;;;;;12.04;100.00;99482.63;5043650;28;20104;-83
2022/09/30 01:47:40;;;;;;;3.20;0.10;;;;;;;12.05;100.00;99484.25;5039551;28;20037;-84
2022/09/30 01:50:18;;;;;;;0.75;0.10;;;;;;;12.01;100.00;99475.16;5031714;28;20029;-83
2022/09/30 01:53:00;;;;;;;0.70;0.05;;;;;;;12.00;100.00;99489.19;5046957;28;20037;-83
2022/09/30 01:55:37;;;;;;;0.40;0.00;;;;;;;11.98;100.00;99493.78;5031032;28;20037;-85
2022/09/30 01:58:16;;;;;;;0.45;0.03;;;;;;;11.98;100.00;99499.00;5029850;28;20082;-84
2022/09/30 02:00:48;;;;;;;0.17;0.00;;;;;;;11.99;100.00;99495.41;5041125;28;20485;-84
2022/09/30 02:03:26;;;;;;;0.40;0.03;;;;;;;12.02;100.00;99504.69;5029900;28;20385;-83
2022/09/30 02:06:03;;;;;;;2.15;0.00;;;;;;;12.01;100.00;99506.47;5030738;28;20168;-83
2022/09/30 02:08:40;;;;;;;0.40;0.00;;;;;;;12.03;100.00;99501.91;5029701;28;20037;-83
2022/09/30 02:11:16;;;;;;;0.60;0.00;;;;;;;12.08;100.00;99512.63;5029228;28;20494;-84
2022/09/30 02:13:52;;;;;;;0.90;0.10;;;;;;;12.13;100.00;99512.09;5029538;28;20112;-85
2022/09/30 02:16:26;;;;;;;0.77;0.10;;;;;;;12.10;100.00;99510.66;5030084;28;20033;-85
2022/09/30 02:19:01;;;;;;;0.30;0.10;;;;;;;12.09;100.00;99518.66;5030501;28;20481;-86
2022/09/30 02:21:33;;;;;;;0.52;0.00;;;;;;;12.10;100.00;99526.31;5032379;28;20352;-84
2022/09/30 02:24:05;;;;;;;0.80;0.00;;;;;;;12.12;100.00;99533.97;5029832;28;20069;-84
2022/09/30 02:26:36;;;;;;;1.75;0.08;;;;;;;12.11;100.00;99525.31;5029343;28;20489;-85
2022/09/30 02:29:11;;;;;;;1.85;0.10;;;;;;;12.12;100.00;99526.13;5020561;28;20032;-84
2022/09/30 02:31:40;;;;;;;2.60;0.10;;;;;;;12.13;100.00;99538.22;5032000;28;20167;-84
2022/09/30 02:34:20;;;;;;;1.23;0.00;;;;;;;12.10;100.00;99538.56;5012003;28;20145;-85
2022/09/30 02:37:01;;;;;;;0.43;0.10;;;;;;;12.13;100.00;99546.84;5031852;28;20029;-85
2022/09/30 02:39:57;;;;;;;1.48;0.03;;;;;;;12.13;100.00;99559.91;5046733;28;20238;-82
2022/09/30 02:42:27;;;;;;;0.55;0.00;;;;;;;12.17;100.00;99557.75;5029770;28;20056;-85
2022/09/30 02:44:57;;;;;;;0.30;0.00;;;;;;;12.19;100.00;99566.22;5040441;28;20040;-84
2022/09/30 02:47:41;;;;;;;0.90;0.00;;;;;;;12.19;100.00;99574.88;5048079;28;20178;-83
2022/09/30 02:50:25;;;;;;;1.40;0.10;;;;;;;12.20;100.00;99573.88;5032125;28;20119;-84
2022/09/30 02:53:17;;;;;;;1.50;0.00;;;;;;;12.20;100.00;99573.88;5042552;28;20063;-83
2022/09/30 02:56:04;;;;;;;2.33;0.00;;;;;;;12.26;100.00;99588.84;4948108;29;20053;-82
2022/09/30 02:58:30;;;;;;;0.75;0.00;;;;;;;12.30;100.00;99595.31;4956659;28;20052;-86
2022/09/30 03:00:56;;;;;;;0.88;0.10;;;;;;;12.33;100.00;99598.56;4964100;28;20043;-83
2022/09/30 03:03:22;;;;;;;0.15;0.00;;;;;;;12.34;100.00;99603.63;4951619;28;20031;-84
2022/09/30 03:05:50;;;;;;;2.38;0.10;;;;;;;12.35;100.00;99604.44;4949354;28;20039;-84
2022/09/30 03:08:16;;;;;;;2.35;0.15;;;;;;;12.37;100.00;99605.06;4938754;28;20463;-83
2022/09/30 03:10:43;;;;;;;0.95;0.10;;;;;;;12.37;100.00;99605.88;4966449;28;20049;-83
2022/09/30 03:13:11;;;;;;;0.38;0.00;;;;;;;12.42;100.00;99615.81;4937601;28;20131;-83
2022/09/30 03:16:01;;;;;;;0.57;0.10;;;;;;;12.39;100.00;99618.75;4956274;28;20035;-84
2022/09/30 03:18:52;;;;;;;1.10;0.03;;;;;;;12.43;100.00;99618.22;4966373;28;20136;-83
2022/09/30 03:21:29;;;;;;;0.30;0.00;;;;;;;12.51;100.00;99625.19;4957296;28;20578;-86
2022/09/30 03:24:09;;;;;;;0.20;0.00;;;;;;;12.53;100.00;99638.91;4963492;28;20082;-85
2022/09/30 03:26:41;;;;;;;3.65;0.80;;;;;;;12.52;100.00;99632.84;4965874;28;20038;-84
2022/09/30 03:29:41;;;;;;;1.45;0.38;;;;;;;12.46;100.00;99643.19;4951500;28;20046;-85
2022/09/30 03:32:19;;;;;;;2.25;0.10;;;;;;;12.46;100.00;99648.41;4978172;28;20045;-85
2022/09/30 03:35:07;;;;;;;0.77;0.10;;;;;;;12.39;100.00;99650.09;5033900;28;20287;-84
2022/09/30 03:37:39;;;;;;;0.80;0.10;;;;;;;12.43;100.00;99652.19;5029420;28;20048;-83
2022/09/30 03:40:16;;;;;;;0.85;0.10;;;;;;;12.44;100.00;99658.22;5044063;28;20037;-85
2022/09/30 03:42:52;;;;;;;1.98;0.10;;;;;;;12.47;100.00;99663.09;5043604;28;20053;-83
2022/09/30 03:45:30;;;;;;;0.70;0.20;;;;;;;12.46;100.00;99667.53;5027372;28;20033;-84
2022/09/30 03:48:00;;;;;;;2.60;0.10;;;;;;;12.49;100.00;99661.94;5027783;28;20061;-84
2022/09/30 03:50:28;;;;;;;3.20;0.10;;;;;;;12.52;100.00;99666.00;5013279;28;20025;-83
2022/09/30 03:52:54;;;;;;;0.47;0.10;;;;;;;12.53;100.00;99672.84;5036752;28;20179;-85
2022/09/30 03:55:22;;;;;;;2.08;0.10;;;;;;;12.56;100.00;99673.31;5048018;28;20472;-84
2022/09/30 03:57:48;;;;;;;1.65;0.10;;;;;;;12.56;100.00;99667.28;5035871;28;20025;-86
2022/09/30 04:00:14;;;;;;;0.38;0.10;;;;;;;12.56;100.00;99662.06;5047002;28;20029;-84
2022/09/30 04:02:40;;;;;;;0.73;0.10;;;;;;;12.58;100.00;99666.13;5028410;28;20407;-86
2022/09/30 04:05:07;;;;;;;1.45;0.10;;;;;;;12.59;100.00;99666.94;5035480;28;20029;-82
2022/09/30 04:07:33;;;;;;;0.98;0.10;;;;;;;12.56;100.00;99662.88;5029162;28;20056;-83
2022/09/30 04:09:58;;;;;;;2.30;0.35;;;;;;;12.54;100.00;99659.63;5039580;28;20629;-82
2022/09/30 04:12:24;;;;;;;0.43;0.10;;;;;;;12.54;100.00;99664.03;5046625;28;20025;-83
2022/09/30 04:14:49;;;;;;;2.75;0.10;;;;;;;12.56;100.00;99668.09;5047760;28;20020;-83
2022/09/30 04:17:15;;;;;;;0.20;0.10;;;;;;;12.55;100.00;99658.63;5024725;28;20041;-83
2022/09/30 04:19:40;;;;;;;1.25;0.08;;;;;;;12.54;100.00;99671.88;5027606;28;20489;-86
2022/09/30 04:22:07;;;;;;;1.10;0.10;;;;;;;12.54;100.00;99682.31;5036950;28;20060;-83
2022/09/30 04:24:33;;;;;;;2.28;0.10;;;;;;;12.53;100.00;99681.50;5036660;28;20025;-83
2022/09/30 04:26:58;;;;;;;0.50;0.10;;;;;;;12.55;100.00;99687.38;5034197;28;20055;-85
2022/09/30 04:29:24;;;;;;;0.50;0.10;;;;;;;12.53;100.00;99683.31;5029976;28;20029;-84
2022/09/30 04:31:50;;;;;;;1.17;0.05;;;;;;;12.54;100.00;99685.75;5027048;28;20091;-84
2022/09/30 04:34:15;;;;;;;0.85;0.10;;;;;;;12.53;100.00;99683.31;5016033;28;20067;-83
2022/09/30 04:36:42;;;;;;;0.80;0.20;;;;;;;12.57;100.00;99687.19;5043905;28;20018;-86
2022/09/30 04:39:07;;;;;;;0.75;0.20;;;;;;;12.53;100.00;99689.34;5030769;28;20033;-85
2022/09/30 04:41:33;;;;;;;0.55;0.10;;;;;;;12.53;100.00;99688.53;5030743;28;20036;-84
2022/09/30 04:43:59;;;;;;;0.95;0.10;;;;;;;12.54;100.00;99698.00;5067467;28;20553;-84
2022/09/30 04:46:24;;;;;;;0.50;0.10;;;;;;;12.53;100.00;99696.38;5049697;28;20432;-84
2022/09/30 04:48:50;;;;;;;1.20;0.22;;;;;;;12.54;100.00;99698.00;5047360;28;20111;-82
2022/09/30 04:51:20;;;;;;;1.02;0.17;;;;;;;12.56;100.00;99709.91;5047797;28;20384;-86
2022/09/30 04:53:46;;;;;;;0.30;0.10;;;;;;;12.60;100.00;99712.97;5043863;28;20041;-84
2022/09/30 04:56:12;;;;;;;2.35;0.10;;;;;;;12.61;100.00;99709.38;5026806;28;20049;-86
2022/09/30 04:58:38;;;;;;;0.77;0.10;;;;;;;12.56;100.00;99711.69;5009087;28;20025;-87
2022/09/30 05:01:07;;;;;;;0.70;0.08;;;;;;;12.57;100.00;99710.72;5021778;28;20499;-88
2022/09/30 05:03:33;;;;;;;2.78;0.20;;;;;;;12.58;100.00;99709.72;5021267;28;20029;-85
2022/09/30 05:06:00;;;;;;;1.27;0.10;;;;;;;12.57;100.00;99701.06;5030857;28;20037;-88
2022/09/30 05:08:25;;;;;;;2.92;0.10;;;;;;;12.59;100.00;99700.91;5027511;28;20448;-86
2022/09/30 05:10:56;;;;;;;0.32;0.10;;;;;;;12.59;100.00;99709.56;5018721;28;20119;-84
2022/09/30 05:13:24;;;;;;;3.40;0.10;;;;;;;12.61;100.00;99710.19;5027179;28;20374;-85
2022/09/30 05:15:49;;;;;;;1.42;0.10;;;;;;;12.62;100.00;99713.63;5026730;28;20497;-86
2022/09/30 05:18:15;;;;;;;0.52;0.03;;;;;;;12.64;100.00;99722.09;5039510;28;20040;-87
2022/09/30 05:20:41;;;;;;;2.10;0.10;;;;;;;12.63;100.00;99730.94;5045789;28;20090;-84
2022/09/30 05:23:06;;;;;;;4.68;0.73;;;;;;;12.67;100.00;99732.19;5038603;28;20034;-85
2022/09/30 05:25:34;;;;;;;2.22;0.20;;;;;;;12.72;100.00;99737.72;5029085;28;20029;-88
2022/09/30 05:27:59;;;;;;;3.10;0.20;;;;;;;12.73;100.00;99741.97;5016191;28;20045;-86
2022/09/30 05:30:25;;;;;;;1.15;0.20;;;;;;;12.74;100.00;99743.59;5046201;28;20033;-86
2022/09/30 05:32:50;;;;;;;2.67;0.20;;;;;;;12.76;100.00;99757.25;5025262;28;20021;-84
2022/09/30 05:35:16;;;;;;;1.02;0.20;;;;;;;12.71;100.00;99764.84;5044207;28;20459;-87
2022/09/30 05:37:42;;;;;;;2.15;0.20;;;;;;;12.76;100.00;99756.47;5027084;28;20025;-84
2022/09/30 05:40:08;;;;;;;1.63;0.20;;;;;;;12.74;100.00;99761.06;5027824;28;20044;-86
2022/09/30 05:42:35;;;;;;;3.60;0.20;;;;;;;12.74;100.00;99772.34;5026277;28;20057;-88
2022/09/30 05:45:03;;;;;;;2.15;0.17;;;;;;;12.72;100.00;99770.88;5024023;28;20033;-86
2022/09/30 05:47:28;;;;;;;2.88;0.10;;;;;;;12.73;100.00;99783.78;5028932;28;20033;-84
2022/09/30 05:49:54;;;;;;;1.20;0.20;;;;;;;12.78;100.00;99794.50;5030693;28;20036;-84
2022/09/30 05:52:21;;;;;;;4.22;0.40;;;;;;;12.80;100.00;99800.34;5031109;28;20549;-84
2022/09/30 05:54:46;;;;;;;2.60;0.10;;;;;;;12.81;100.00;99796.75;5031682;28;20017;-85
2022/09/30 05:57:12;;;;;;;0.60;0.10;;;;;;;12.83;100.00;99810.47;5032139;28;20035;-86
2022/09/30 05:59:37;;;;;;;1.58;0.10;;;;;;;12.81;100.00;99804.59;5029915;28;20026;-84
2022/09/30 06:02:04;;;;;;;1.70;0.20;;;;;;;12.89;100.00;99811.56;5025927;28;20158;-85
2022/09/30 06:04:30;;;;;;;0.85;0.10;;;;;;;12.84;100.00;99814.72;5026677;28;20032;-84
2022/09/30 06:06:55;;;;;;;1.48;0.10;;;;;;;12.83;100.00;99830.56;5019335;28;20025;-84
2022/09/30 06:09:21;;;;;;;0.60;0.15;;;;;;;12.83;100.00;99828.75;5048665;28;20150;-85
2022/09/30 06:11:49;;;;;;;0.82;0.10;;;;;;;12.88;100.00;99842.13;5030684;28;20397;-83
2022/09/30 06:14:18;;;;;;;0.30;0.10;;;;;;;12.83;100.00;99841.84;5030137;28;20021;-84
2022/09/30 06:16:49;;;;;;;0.35;0.05;;;;;;;12.80;100.00;99844.81;5029974;28;20481;-85
2022/09/30 06:19:14;;;;;;;1.70;0.10;;;;;;;12.81;100.00;99843.81;5029987;28;20105;-85
2022/09/30 06:21:40;;;;;;;0.40;0.10;;;;;;;12.79;100.00;99840.56;5011600;28;20124;-85
2022/09/30 06:24:08;;;;;;;0.55;0.20;;;;;;;12.82;100.00;99847.25;5032628;28;20138;-84
2022/09/30 06:26:33;;;;;;;0.25;0.05;;;;;;;12.84;100.00;99846.09;5032691;28;20033;-84
2022/09/30 06:28:59;;;;;;;1.27;0.10;;;;;;;12.87;100.00;99848.34;5028345;28;20102;-84
2022/09/30 06:31:24;;;;;;;4.05;0.30;;;;;;;12.89;100.00;99849.00;5049580;28;20112;-87
2022/09/30 06:33:53;;;;;;;1.38;0.20;;;;;;;12.94;100.00;99864.97;5025969;28;20028;-86
2022/09/30 06:36:18;;;;;;;1.00;0.10;;;;;;;12.95;100.00;99871.81;5019595;28;20048;-86
2022/09/30 06:38:50;;;;;;;0.45;0.10;;;;;;;12.99;100.00;99874.09;5042639;28;20025;-85
2022/09/30 06:41:16;;;;;;;4.63;0.17;;;;;;;13.00;100.00;99881.78;5011426;28;20037;-83
2022/09/30 06:43:41;;;;;;;0.52;0.10;;;;;;;13.07;100.00;99882.69;5010514;28;20112;-84
2022/09/30 06:46:07;;;;;;;1.48;0.10;;;;;;;13.05;100.00;99891.72;5029392;28;20037;-85
2022/09/30 06:48:33;;;;;;;3.67;0.10;;;;;;;13.12;100.00;99890.84;5028621;28;20029;-82
2022/09/30 06:51:08;;;;;;;0.93;0.10;;;;;;;13.19;100.00;99897.03;5029548;28;20508;-82
2022/09/30 06:53:35;;;;;;;2.80;0.20;;;;;;;13.15;100.00;99900.13;5019961;28;20128;-83
2022/09/30 06:56:00;;;;;;;1.63;0.10;;;;;;;13.17;100.00;99903.44;5028750;28;20138;-82
2022/09/30 06:58:32;;;;;;;0.60;0.10;;;;;;;13.16;100.00;99900.00;5010613;28;20060;-84
2022/09/30 07:01:23;;;;;;;0.77;0.20;;;;;;;13.18;100.00;99890.19;5022679;28;20153;-82
2022/09/30 07:03:56;;;;;;;1.27;0.20;;;;;;;13.16;100.00;99894.78;5031850;28;20095;-82
2022/09/30 07:06:25;;;;;;;2.13;0.50;;;;;;;13.11;100.00;99907.53;5027223;28;20493;-84
2022/09/30 07:08:55;;;;;;;1.20;0.30;;;;;;;13.09;100.00;99908.69;5022380;28;20033;-84
2022/09/30 07:11:21;;;;;;;1.05;0.40;;;;;;;13.18;100.00;99918.94;5035165;28;20041;-84
2022/09/30 07:13:48;;;;;;;3.70;0.45;;;;;;;13.27;100.00;99917.06;5010742;28;20612;-82
2022/09/30 07:16:15;;;;;;;1.33;0.30;;;;;;;13.36;100.00;99920.44;5027486;28;20037;-84
2022/09/30 07:18:47;;;;;;;1.00;0.30;;;;;;;13.45;100.00;99914.16;5028330;28;20036;-83
2022/09/30 07:21:14;;;;;;;1.38;0.10;;;;;;;13.48;100.00;99913.81;5013083;28;20079;-83
2022/09/30 07:23:52;;;;;;;0.80;0.10;;;;;;;13.48;100.00;99919.03;5013039;28;20033;-84
2022/09/30 07:26:20;;;;;;;1.08;0.20;;;;;;;13.53;100.00;99922.75;5036355;28;20033;-83
2022/09/30 07:28:47;;;;;;;1.48;0.20;;;;;;;13.63;100.00;99935.59;5013839;28;20076;-83
2022/09/30 07:31:21;;;;;;;1.80;0.57;;;;;;;13.71;100.00;99940.72;5024074;28;20508;-84
2022/09/30 07:33:50;;;;;;;1.27;0.30;;;;;;;13.79;100.00;99947.72;5015239;28;20568;-83
2022/09/30 07:36:17;;;;;;;1.08;0.25;;;;;;;13.75;100.00;99951.66;5033659;28;20040;-82
2022/09/30 07:38:44;;;;;;;2.53;0.20;;;;;;;13.85;100.00;99947.00;5022828;28;20029;-86
2022/09/30 07:41:16;;;;;;;1.05;0.20;;;;;;;13.87;100.00;99940.59;5044297;28;20040;-86
2022/09/30 07:43:43;;;;;;;1.10;0.20;;;;;;;13.83;100.00;99948.97;5050601;28;20049;-83
2022/09/30 07:46:13;;;;;;;1.52;0.20;;;;;;;13.90;100.00;99955.13;5033269;28;20417;-85
2022/09/30 07:48:45;;;;;;;0.60;0.20;;;;;;;13.98;100.00;99962.91;5028273;28;20034;-82
2022/09/30 07:51:13;;;;;;;1.00;0.10;;;;;;;14.09;100.00;99959.06;5034917;28;20056;-82
2022/09/30 07:53:43;;;;;;;0.65;0.10;;;;;;;14.18;100.00;99968.44;5034650;28;20044;-84
2022/09/30 07:56:10;;;;;;;2.83;0.20;;;;;;;14.21;100.00;99970.69;5028492;28;20026;-83
2022/09/30 07:58:36;;;;;;;4.85;0.30;;;;;;;14.24;100.00;99979.00;5033063;28;20072;-81
2022/09/30 08:01:05;;;;;;;1.75;0.28;;;;;;;14.23;100.00;99981.81;5057052;28;20051;-85
2022/09/30 08:03:32;;;;;;;1.23;0.40;;;;;;;14.26;100.00;99978.84;5041463;28;20123;-85
2022/09/30 08:06:04;;;;;;;5.95;0.20;;;;;;;14.30;100.00;99985.34;5033216;28;20027;-82
2022/09/30 08:08:29;;;;;;;1.38;0.10;;;;;;;14.33;100.00;99981.56;5030551;28;20051;-83
2022/09/30 08:10:58;;;;;;;1.67;0.20;;;;;;;14.39;100.00;99988.69;5040512;28;20400;-85
2022/09/30 08:13:23;;;;;;;0.40;0.10;;;;;;;14.41;100.00;99992.78;5039383;28;20032;-84
2022/09/30 08:15:49;;;;;;;1.35;0.17;;;;;;;14.43;100.00;100001.28;5041714;28;20422;-85
2022/09/30 08:18:16;;;;;;;0.68;0.20;;;;;;;14.42;100.00;99997.03;5021204;28;20506;-83
2022/09/30 08:20:48;;;;;;;1.42;0.20;;;;;;;14.44;100.00;99995.06;5026669;28;20036;-85
2022/09/30 08:23:13;;;;;;;2.47;0.85;;;;;;;14.47;100.00;100005.19;5024625;28;20036;-84
2022/09/30 08:25:39;;;;;;;1.17;0.10;;;;;;;14.53;100.00;100011.50;5043136;28;20079;-85
2022/09/30 08:28:04;;;;;;;0.70;0.05;;;;;;;14.54;100.00;100010.53;5009627;28;20121;-83
2022/09/30 08:30:30;;;;;;;1.08;0.10;;;;;;;14.56;100.00;100008.53;5023242;28;20048;-84
2022/09/30 08:33:34;;;;;;;1.05;0.10;;;;;;;14.56;100.00;100013.78;5019512;28;20546;-84
2022/09/30 08:36:07;;;;;;;2.83;0.10;;;;;;;14.67;100.00;100015.09;5035679;28;20053;-85
2022/09/30 08:38:36;;;;;;;1.33;0.10;;;;;;;14.72;100.00;100012.75;5011951;28;20500;-84
2022/09/30 08:41:13;;;;;;;0.52;0.20;;;;;;;14.75;100.00;100013.19;5025027;28;20044;-84
2022/09/30 08:44:11;;;;;;;0.85;0.10;;;;;;;14.77;100.00;100015.63;5000128;28;20094;-83
2022/09/30 08:46:45;;;;;;;1.80;0.10;;;;;;;14.80;100.00;100028.41;5000503;28;20053;-82
2022/09/30 08:49:31;;;;;;;1.38;0.17;;;;;;;14.82;100.00;100035.09;5001735;28;20524;-84
2022/09/30 08:52:00;;;;;;;1.13;0.40;;;;;;;14.88;100.00;100034.34;5003570;28;20461;-85
2022/09/30 08:54:32;;;;;;;0.68;0.13;;;;;;;14.96;100.00;100030.81;5006835;28;20128;-83
2022/09/30 08:57:02;;;;;;;0.65;0.10;;;;;;;15.09;100.00;100031.00;5009546;28;20482;-86
2022/09/30 08:59:41;;;;;;;0.93;0.10;;;;;;;15.27;100.00;100038.44;5000823;28;20034;-84
2022/09/30 09:02:30;;;;;;;2.03;0.10;;;;;;;15.48;100.00;100048.97;4997643;28;20037;-82
2022/09/30 09:05:07;;;;;;;1.10;0.10;;;;;;;15.64;100.00;100047.13;4986870;28;20044;-83
2022/09/30 09:08:14;;;;;;;1.95;0.10;;;;;;;15.82;100.00;100044.88;4985910;28;20463;-84
2022/09/30 09:10:45;;;;;;;1.17;0.10;;;;;;;15.98;100.00;100063.00;4982340;28;20046;-84
2022/09/30 09:13:47;;;;;;;1.48;0.10;;;;;;;16.02;100.00;100064.25;4988969;28;20039;-85
2022/09/30 09:16:23;;;;;;;1.55;0.10;;;;;;;16.06;100.00;100068.13;4998855;28;20493;-85
2022/09/30 09:18:54;;;;;;;1.40;0.10;;;;;;;16.06;100.00;100072.59;5004739;28;20837;-83
2022/09/30 09:21:50;;;;;;;0.77;0.13;;;;;;;16.04;100.00;100078.03;5008503;28;20046;-83
2022/09/30 09:24:23;;;;;;;0.45;0.10;;;;;;;16.00;100.00;100071.53;5007557;28;20528;-84
2022/09/30 09:26:51;;;;;;;3.47;0.10;;;;;;;16.02;100.00;100072.16;5003255;28;20505;-85
2022/09/30 09:29:48;;;;;;;1.85;0.10;;;;;;;16.08;100.00;100067.91;4997675;28;20123;-83
2022/09/30 09:32:18;;;;;;;2.05;0.10;;;;;;;16.20;100.00;100053.28;5001366;28;20084;-84
2022/09/30 09:34:54;;;;;;;1.33;0.20;;;;;;;16.29;100.00;100064.47;5011099;28;20030;-84
2022/09/30 09:40:55;;;;;;;0.90;0.10;;;;;;;16.41;100.00;100076.06;4992022;28;20038;-86
2022/09/30 09:44:02;;;;;;;1.13;0.20;;;;;;;16.36;100.00;100081.09;5014062;28;20049;-82
2022/09/30 09:46:29;;;;;;;;;;;;;;;16.33;100.00;100086.72;5006553;28;20044;-84
2022/09/30 09:49:15;;;;;;;0.80;0.20;;;;;;;16.36;100.00;100089.78;5033164;28;20072;-84
2022/09/30 09:52:05;;;;;;;1.30;0.25;;;;;;;16.39;100.00;100096.50;5031802;28;20183;-86
2022/09/30 09:54:41;;;;;;;2.45;0.10;;;;;;;16.42;100.00;100111.88;5042078;28;20029;-84
2022/09/30 09:57:14;;;;;;;0.50;0.10;;;;;;;16.48;100.00;100105.88;5052649;28;20083;-83
2022/09/30 09:59:58;;;;;;;0.77;0.08;;;;;;;16.50;100.00;100103.84;5040001;28;20029;-84
2022/09/30 10:02:30;;;;;;;0.25;0.00;;;;;;;16.57;100.00;100097.63;5012431;28;20029;-86
2022/09/30 10:05:02;;;;;;;0.28;0.10;;;;;;;16.65;100.00;100088.78;5012734;28;20026;-84
2022/09/30 10:07:32;;;;;;;1.85;0.10;;;;;;;16.67;100.00;100099.13;5012918;28;20048;-83
2022/09/30 10:10:14;;;;;;;3.40;0.30;;;;;;;16.62;100.00;100107.56;5028358;28;20034;-85
2022/09/30 10:12:40;;;;;;;0.70;0.10;;;;;;;16.72;100.00;100107.25;5030591;28;20034;-83
2022/09/30 10:15:25;;;;;;;1.58;0.25;;;;;;;16.79;100.00;100108.94;5048553;28;20092;-84
2022/09/30 10:17:57;;;;;;;3.63;0.38;;;;;;;16.95;100.00;100109.63;5025789;28;20489;-85
2022/09/30 10:20:31;;;;;;;1.10;0.10;;;;;;;17.03;100.00;100110.25;5033108;28;20026;-85
2022/09/30 10:23:19;;;;;;;0.57;0.10;;;;;;;17.02;100.00;100115.72;5011925;28;20029;-86
2022/09/30 10:26:17;;;;;;;2.20;0.20;;;;;;;16.99;100.00;100113.50;5028925;28;20043;-84
2022/09/30 10:29:10;;;;;;;1.25;0.10;;;;;;;16.96;100.00;100106.00;5044683;28;20040;-82
2022/09/30 10:31:56;;;;;;;2.25;0.10;;;;;;;16.95;100.00;100113.06;5045063;28;20512;-84
2022/09/30 10:34:35;;;;;;;0.73;0.10;;;;;;;17.05;100.00;100099.53;5026853;28;20039;-84
2022/09/30 10:37:07;;;;;;;2.33;0.10;;;;;;;17.16;100.00;100093.72;5019074;28;20028;-84
2022/09/30 10:39:35;;;;;;;1.70;0.52;;;;;;;17.21;100.00;100097.38;5032840;28;20715;-85
2022/09/30 10:42:24;;;;;;;0.80;0.10;;;;;;;17.19;100.00;100104.66;5030501;28;20098;-86
2022/09/30 10:45:03;;;;;;;2.03;0.50;;;;;;;17.16;100.00;100110.31;5035084;28;20036;-85
2022/09/30 10:47:29;;;;;;;2.90;0.17;;;;;;;17.18;100.00;100107.50;5045860;28;20047;-84
2022/09/30 10:50:15;;;;;;;2.17;0.10;;;;;;;17.15;100.00;100107.88;5026589;28;20032;-85
2022/09/30 10:53:10;;;;;;;1.67;0.00;;;;;;;17.15;100.00;100103.44;5023144;28;20382;-84
2022/09/30 10:55:46;;;;;;;1.38;0.10;;;;;;;17.17;100.00;100100.59;5011329;28;20049;-85
2022/09/30 10:58:26;;;;;;;0.68;0.00;;;;;;;17.17;100.00;100111.94;5025901;28;20025;-84
2022/09/30 11:01:03;;;;;;;3.67;0.15;;;;;;;17.23;100.00;100105.91;5012749;28;20045;-85
2022/09/30 11:03:42;;;;;;;2.00;0.10;;;;;;;17.29;100.00;100114.03;5031205;28;20550;-85
2022/09/30 11:06:13;;;;;;;3.50;0.10;;;;;;;17.36;100.00;100123.59;5039660;28;20045;-84
2022/09/30 11:08:49;;;;;;;2.25;0.10;;;;;;;17.43;100.00;100127.06;5041566;28;20033;-84
2022/09/30 11:11:28;;;;;;;1.23;0.03;;;;;;;17.49;100.00;100131.50;5038168;28;20036;-85
2022/09/30 11:14:10;;;;;;;1.63;0.00;;;;;;;17.57;100.00;100133.16;5020069;28;20091;-88
2022/09/30 11:16:40;;;;;;;1.63;0.08;;;;;;;17.61;100.00;100137.03;5031569;28;20033;-86
2022/09/30 11:19:32;;;;;;;1.75;0.10;;;;;;;17.62;100.00;100133.38;5049354;28;20173;-86
2022/09/30 11:22:27;;;;;;;1.02;0.00;;;;;;;17.63;100.00;100136.81;5050208;28;20497;-86
2022/09/30 11:24:54;;;;;;;0.60;0.00;;;;;;;17.69;100.00;100130.81;5049364;28;20036;-86
2022/09/30 11:27:35;;;;;;;2.15;0.30;;;;;;;17.63;100.00;100128.94;5030915;28;20037;-88
2022/09/30 11:30:17;;;;;;;1.38;0.05;;;;;;;17.59;100.00;100123.25;5043016;28;20060;-88
2022/09/30 11:33:22;;;;;;;2.22;0.22;;;;;;;17.51;100.00;100123.41;5017376;28;20079;-85
2022/09/30 11:36:00;;;;;;;2.03;0.00;;;;;;;17.50;100.00;100138.41;5011072;28;20037;-86
2022/09/30 11:38:56;;;;;;;2.70;0.00;;;;;;;17.46;100.00;100139.84;5028792;28;20036;-87
2022/09/30 11:41:36;;;;;;;0.17;0.00;;;;;;;17.44;100.00;100143.66;5011051;28;20441;-86
2022/09/30 11:44:37;;;;;;;0.45;0.10;;;;;;;17.44;100.00;100144.47;5030177;28;20524;-85
2022/09/30 11:47:59;;;;;;;3.95;0.10;;;;;;;17.44;100.00;100149.75;5037774;28;20187;-86
2022/09/30 11:50:25;;;;;;;3.17;0.08;;;;;;;17.45;100.00;100151.38;4949309;28;20047;-87
2022/09/30 11:53:26;;;;;;;1.33;0.10;;;;;;;17.36;100.00;100157.81;4947866;29;20097;-86
2022/09/30 11:56:09;;;;;;;4.80;0.10;;;;;;;17.28;100.00;100151.91;4930084;29;20126;-86